Time;durP1;ratioP1;P1;durP2;ratioP2;P2;SDS_P1;SDS_P2;PMS_P1;PMS_P2;Temp;Humidity;BMP_temperature;BMP_pressure;BME280_temperature;BME280_humidity;BME280_pressure;Samples;Min_cycle;Max_cycle;Signal;HPM_P1;HPM_P2
2024/01/07 00:01:24;;;;;;;;;;;0.30;99.90;;;;;;5015839;28;19924;-71
2024/01/07 00:03:51;;;;;;;;;;;0.20;99.90;;;;;;4986192;28;19929;-71
2024/01/07 00:06:17;;;;;;;;;;;0.30;99.90;;;;;;4998023;28;20939;-71
2024/01/07 00:08:42;;;;;;;;;;;0.30;99.90;;;;;;4976044;28;19997;-72
2024/01/07 00:11:08;;;;;;;;;;;0.30;99.90;;;;;;4983359;28;19932;-72
2024/01/07 00:13:34;;;;;;;;;;;0.30;99.90;;;;;;4976242;28;20690;-71
2024/01/07 00:16:00;;;;;;;;;;;0.30;99.90;;;;;;5008893;28;20594;-72
2024/01/07 00:18:27;;;;;;;;;;;0.30;99.90;;;;;;4988805;28;20404;-72
2024/01/07 00:20:53;;;;;;;;;;;0.30;99.90;;;;;;4998274;28;20540;-71
2024/01/07 00:23:20;;;;;;;;;;;0.30;99.90;;;;;;4963826;28;19924;-71
2024/01/07 00:25:49;;;;;;;;;;;0.20;99.90;;;;;;4998648;28;19924;-71
2024/01/07 00:28:15;;;;;;;;;;;0.20;99.90;;;;;;4980618;28;20042;-71
2024/01/07 00:30:41;;;;;;;;;;;0.20;99.90;;;;;;4987183;28;20511;-71
2024/01/07 00:33:07;;;;;;;;;;;0.20;99.90;;;;;;4970950;28;19925;-72
2024/01/07 00:35:32;;;;;;;;;;;0.20;99.90;;;;;;4981476;28;19931;-71
2024/01/07 00:37:58;;;;;;;;;;;0.20;99.90;;;;;;4977261;28;20083;-71
2024/01/07 00:40:24;;;;;;;;;;;0.20;99.90;;;;;;4989375;28;19935;-71
2024/01/07 00:42:51;;;;;;;;;;;0.20;99.90;;;;;;4984556;28;20891;-71
2024/01/07 00:45:17;;;;;;;;;;;0.20;99.90;;;;;;4994870;28;19995;-71
2024/01/07 00:47:43;;;;;;;;;;;0.20;99.90;;;;;;4969865;28;20976;-71
2024/01/07 00:50:09;;;;;;;;;;;0.20;99.90;;;;;;4996102;28;19929;-71
2024/01/07 00:52:38;;;;;;;;;;;0.20;99.90;;;;;;4973021;28;19932;-72
2024/01/07 00:55:06;;;;;;;;;;;0.20;99.90;;;;;;5009430;28;19932;-72
2024/01/07 00:57:32;;;;;;;;;;;0.20;99.90;;;;;;4939040;28;21477;-71
2024/01/07 00:59:58;;;;;;;;;;;0.10;99.90;;;;;;5013675;28;19929;-70
2024/01/07 01:02:24;;;;;;;;;;;0.20;99.90;;;;;;4973912;28;19937;-71
2024/01/07 01:04:50;;;;;;;;;;;0.20;99.90;;;;;;4991381;28;20424;-70
2024/01/07 01:07:16;;;;;;;;;;;0.20;99.90;;;;;;4965328;28;19925;-71
2024/01/07 01:09:42;;;;;;;;;;;0.20;99.90;;;;;;4977883;28;20982;-71
2024/01/07 01:12:08;;;;;;;;;;;0.20;99.90;;;;;;4988144;28;20658;-71
2024/01/07 01:14:34;;;;;;;;;;;0.20;99.90;;;;;;4981026;28;19925;-70
2024/01/07 01:17:00;;;;;;;;;;;0.20;99.90;;;;;;4997450;28;20550;-70
2024/01/07 01:19:26;;;;;;;;;;;0.20;99.90;;;;;;4985792;28;19996;-71
2024/01/07 01:21:51;;;;;;;;;;;0.20;99.90;;;;;;4995329;28;19935;-70
2024/01/07 01:24:17;;;;;;;;;;;0.20;99.90;;;;;;4952236;28;19931;-70
2024/01/07 01:26:43;;;;;;;;;;;0.30;99.90;;;;;;4979468;28;19931;-71
2024/01/07 01:29:09;;;;;;;;;;;0.30;99.90;;;;;;4985055;28;19924;-71
2024/01/07 01:31:35;;;;;;;;;;;0.20;99.90;;;;;;5014043;28;19939;-70
2024/01/07 01:34:01;;;;;;;;;;;0.20;99.90;;;;;;4975417;28;20321;-70
2024/01/07 01:36:27;;;;;;;;;;;0.20;99.90;;;;;;4963437;28;20297;-71
2024/01/07 01:38:53;;;;;;;;;;;0.20;99.90;;;;;;4979946;28;19940;-70
2024/01/07 01:41:18;;;;;;;;;;;0.20;99.90;;;;;;5000446;28;19925;-70
2024/01/07 01:43:44;;;;;;;;;;;0.20;99.90;;;;;;4934914;28;19925;-70
2024/01/07 01:46:12;;;;;;;;;;;0.20;99.90;;;;;;4997089;28;19932;-70
2024/01/07 01:48:38;;;;;;;;;;;0.20;99.90;;;;;;4975978;28;20430;-70
2024/01/07 01:51:04;;;;;;;;;;;0.10;99.90;;;;;;5003876;28;19987;-71
2024/01/07 01:53:30;;;;;;;;;;;0.10;99.90;;;;;;4963421;28;20026;-71
2024/01/07 01:55:57;;;;;;;;;;;0.10;99.90;;;;;;4998324;28;19924;-71
2024/01/07 01:58:23;;;;;;;;;;;0.10;99.90;;;;;;4980708;28;19951;-70
2024/01/07 02:00:50;;;;;;;;;;;0.10;99.90;;;;;;5002157;28;19936;-71
2024/01/07 02:03:17;;;;;;;;;;;0.10;99.90;;;;;;4978734;28;19925;-71
2024/01/07 02:05:43;;;;;;;;;;;0.10;99.90;;;;;;4978678;28;20044;-71
2024/01/07 02:08:09;;;;;;;;;;;0.10;99.90;;;;;;4977294;28;20569;-70
2024/01/07 02:10:36;;;;;;;;;;;0.10;99.90;;;;;;4966192;28;19932;-70
2024/01/07 02:13:04;;;;;;;;;;;0.10;99.90;;;;;;4974771;28;19924;-71
2024/01/07 02:15:30;;;;;;;;;;;0.10;99.90;;;;;;5004337;28;19929;-71
2024/01/07 02:17:56;;;;;;;;;;;0.00;99.90;;;;;;4969293;28;20668;-71
2024/01/07 02:20:23;;;;;;;;;;;0.10;99.90;;;;;;4988340;28;19928;-71
2024/01/07 02:22:49;;;;;;;;;;;0.10;99.90;;;;;;4968065;28;19924;-71
2024/01/07 02:25:14;;;;;;;;;;;0.10;99.90;;;;;;4983443;28;19951;-70
2024/01/07 02:27:40;;;;;;;;;;;0.10;99.90;;;;;;4971794;28;20912;-70
2024/01/07 02:30:07;;;;;;;;;;;0.10;99.90;;;;;;4991085;28;19932;-70
2024/01/07 02:32:35;;;;;;;;;;;0.10;99.90;;;;;;4968647;28;19979;-70
2024/01/07 02:35:01;;;;;;;;;;;0.10;99.90;;;;;;5006740;28;20498;-70
2024/01/07 02:37:27;;;;;;;;;;;0.10;99.90;;;;;;4967191;28;19937;-70
2024/01/07 02:39:53;;;;;;;;;;;0.10;99.90;;;;;;5005478;28;19932;-69
2024/01/07 02:42:19;;;;;;;;;;;0.10;99.90;;;;;;4965978;28;20646;-69
2024/01/07 02:44:45;;;;;;;;;;;0.10;99.90;;;;;;4993394;28;20021;-70
2024/01/07 02:47:11;;;;;;;;;;;0.10;99.90;;;;;;4969189;28;20410;-70
2024/01/07 02:49:37;;;;;;;;;;;0.10;99.90;;;;;;5010634;28;19924;-68
2024/01/07 02:52:03;;;;;;;;;;;0.10;99.90;;;;;;4975897;28;19972;-69
2024/01/07 02:54:28;;;;;;;;;;;0.00;99.90;;;;;;4966235;28;19924;-68
2024/01/07 02:56:54;;;;;;;;;;;0.10;99.90;;;;;;4995661;28;19965;-69
2024/01/07 02:59:20;;;;;;;;;;;0.00;99.90;;;;;;4966843;28;19932;-69
2024/01/07 03:01:46;;;;;;;;;;;0.10;99.90;;;;;;4996583;28;20425;-68
2024/01/07 03:04:14;;;;;;;;;;;0.00;99.90;;;;;;4981464;28;19933;-69
2024/01/07 03:06:39;;;;;;;;;;;0.00;99.90;;;;;;4992119;28;20430;-69
2024/01/07 03:09:05;;;;;;;;;;;0.10;99.90;;;;;;4967511;28;19924;-68
2024/01/07 03:11:31;;;;;;;;;;;0.00;99.90;;;;;;4989724;28;19925;-68
2024/01/07 03:13:57;;;;;;;;;;;0.00;99.90;;;;;;4963279;28;20621;-68
2024/01/07 03:16:24;;;;;;;;;;;0.00;99.90;;;;;;4992457;28;20212;-68
2024/01/07 03:18:50;;;;;;;;;;;0.00;99.90;;;;;;4963327;28;19925;-69
2024/01/07 03:21:18;;;;;;;;;;;0.00;99.90;;;;;;4997011;28;20593;-69
2024/01/07 03:23:44;;;;;;;;;;;0.00;99.90;;;;;;4981812;28;20478;-69
2024/01/07 03:26:10;;;;;;;;;;;0.00;99.90;;;;;;4999952;28;19931;-69
2024/01/07 03:28:36;;;;;;;;;;;0.00;99.90;;;;;;4964699;28;20569;-69
2024/01/07 03:31:08;;;;;;;;;;;0.00;99.90;;;;;;4981383;28;19925;-69
2024/01/07 03:33:34;;;;;;;;;;;0.00;99.90;;;;;;4979084;28;19935;-68
2024/01/07 03:36:00;;;;;;;;;;;0.00;99.90;;;;;;4984437;28;20477;-68
2024/01/07 03:38:26;;;;;;;;;;;-0.10;99.90;;;;;;4977566;28;19925;-69
2024/01/07 03:40:52;;;;;;;;;;;-0.10;99.90;;;;;;5003758;28;19933;-68
2024/01/07 03:43:18;;;;;;;;;;;-0.10;99.90;;;;;;4978500;28;19979;-68
2024/01/07 03:45:44;;;;;;;;;;;-0.10;99.90;;;;;;5001833;28;20677;-66
2024/01/07 03:48:09;;;;;;;;;;;-0.10;99.90;;;;;;4970363;28;19925;-68
2024/01/07 03:50:35;;;;;;;;;;;-0.10;99.90;;;;;;4998646;28;21149;-69
2024/01/07 03:53:01;;;;;;;;;;;-0.10;99.90;;;;;;4965510;28;19933;-69
2024/01/07 03:55:27;;;;;;;;;;;-0.10;99.90;;;;;;4991934;28;19980;-68
2024/01/07 03:57:53;;;;;;;;;;;-0.10;99.90;;;;;;4975322;28;19999;-68
2024/01/07 04:00:19;;;;;;;;;;;-0.10;99.90;;;;;;5006899;28;19936;-68
2024/01/07 04:02:45;;;;;;;;;;;-0.10;99.90;;;;;;4956685;28;19925;-68
2024/01/07 04:05:12;;;;;;;;;;;-0.10;99.90;;;;;;4994434;28;19928;-68
2024/01/07 04:07:38;;;;;;;;;;;-0.10;99.90;;;;;;4965612;28;19943;-67
2024/01/07 04:10:04;;;;;;;;;;;-0.20;99.90;;;;;;4992248;28;20573;-68
2024/01/07 04:12:30;;;;;;;;;;;-0.10;99.90;;;;;;4969213;28;19937;-68
2024/01/07 04:14:56;;;;;;;;;;;-0.10;99.90;;;;;;5007047;28;19936;-68
2024/01/07 04:17:23;;;;;;;;;;;-0.20;99.90;;;;;;4971831;28;20278;-67
2024/01/07 04:19:49;;;;;;;;;;;-0.20;99.90;;;;;;5007754;28;19932;-67
2024/01/07 04:22:15;;;;;;;;;;;-0.20;99.90;;;;;;4967912;28;19933;-67
2024/01/07 04:24:41;;;;;;;;;;;-0.20;99.90;;;;;;5003831;28;20937;-66
2024/01/07 04:27:07;;;;;;;;;;;-0.20;99.90;;;;;;4992592;28;19925;-66
2024/01/07 04:29:33;;;;;;;;;;;-0.20;99.90;;;;;;4991004;28;19932;-67
2024/01/07 04:31:59;;;;;;;;;;;-0.20;99.90;;;;;;4996067;28;21061;-67
2024/01/07 04:34:25;;;;;;;;;;;-0.20;99.90;;;;;;4974443;28;19925;-67
2024/01/07 04:36:51;;;;;;;;;;;-0.20;99.90;;;;;;4994611;28;20414;-67
2024/01/07 04:39:17;;;;;;;;;;;-0.20;99.90;;;;;;4984600;28;20529;-67
2024/01/07 04:41:42;;;;;;;;;;;-0.20;99.90;;;;;;4999394;28;19924;-67
2024/01/07 04:44:08;;;;;;;;;;;-0.20;99.90;;;;;;4984093;28;20943;-67
2024/01/07 04:46:35;;;;;;;;;;;-0.20;99.90;;;;;;4973303;28;19928;-67
2024/01/07 04:49:01;;;;;;;;;;;-0.20;99.90;;;;;;4983602;28;21055;-68
2024/01/07 04:51:27;;;;;;;;;;;-0.10;99.90;;;;;;4981049;28;19925;-67
2024/01/07 04:53:53;;;;;;;;;;;-0.10;99.90;;;;;;4979759;28;19928;-67
2024/01/07 04:56:19;;;;;;;;;;;-0.10;99.90;;;;;;4996182;28;19935;-68
2024/01/07 04:58:45;;;;;;;;;;;-0.10;99.90;;;;;;4969524;28;20103;-67
2024/01/07 05:01:10;;;;;;;;;;;-0.10;99.90;;;;;;4999222;28;19929;-68
2024/01/07 05:03:37;;;;;;;;;;;-0.10;99.90;;;;;;4978675;28;19925;-67
2024/01/07 05:06:04;;;;;;;;;;;-0.10;99.90;;;;;;4997870;28;19929;-67
2024/01/07 05:08:29;;;;;;;;;;;-0.10;99.90;;;;;;4957966;28;19931;-67
2024/01/07 05:10:56;;;;;;;;;;;-0.10;99.90;;;;;;5000028;28;19929;-67
2024/01/07 05:13:21;;;;;;;;;;;-0.10;99.90;;;;;;4974223;28;19928;-67
2024/01/07 05:15:53;;;;;;;;;;;-0.10;99.90;;;;;;5002176;28;19929;-68
2024/01/07 05:18:22;;;;;;;;;;;-0.10;99.90;;;;;;4968762;28;19940;-67
2024/01/07 05:20:48;;;;;;;;;;;-0.10;99.90;;;;;;4998656;28;19939;-67
2024/01/07 05:23:14;;;;;;;;;;;-0.10;99.90;;;;;;4968010;28;19924;-67
2024/01/07 05:25:42;;;;;;;;;;;-0.10;99.90;;;;;;4993305;28;20010;-66
2024/01/07 05:28:08;;;;;;;;;;;-0.10;99.90;;;;;;4963607;28;19936;-66
2024/01/07 05:30:34;;;;;;;;;;;-0.10;99.90;;;;;;4993594;28;19931;-66
2024/01/07 05:33:00;;;;;;;;;;;-0.10;99.90;;;;;;4973401;28;19935;-66
2024/01/07 05:35:26;;;;;;;;;;;-0.10;99.90;;;;;;5005457;28;20030;-67
2024/01/07 05:37:52;;;;;;;;;;;-0.10;99.90;;;;;;4959202;28;19930;-66
2024/01/07 05:40:18;;;;;;;;;;;-0.10;99.90;;;;;;5006347;28;19955;-66
2024/01/07 05:42:44;;;;;;;;;;;-0.10;99.90;;;;;;4970490;28;19931;-66
2024/01/07 05:45:10;;;;;;;;;;;-0.10;99.90;;;;;;4986093;28;19925;-66
2024/01/07 05:47:36;;;;;;;;;;;-0.10;99.90;;;;;;4971573;28;20399;-65
2024/01/07 05:50:02;;;;;;;;;;;-0.20;99.90;;;;;;4990224;28;19929;-65
2024/01/07 05:52:28;;;;;;;;;;;-0.20;99.90;;;;;;4972788;28;19925;-66
2024/01/07 05:54:53;;;;;;;;;;;-0.10;99.90;;;;;;4991153;28;19924;-66
2024/01/07 05:57:19;;;;;;;;;;;-0.20;99.90;;;;;;4969395;28;20501;-66
2024/01/07 05:59:45;;;;;;;;;;;-0.10;99.90;;;;;;5008221;28;19936;-66
2024/01/07 06:02:12;;;;;;;;;;;-0.20;99.90;;;;;;4971741;28;19925;-66
2024/01/07 06:04:38;;;;;;;;;;;-0.10;99.90;;;;;;4992420;28;20475;-66
2024/01/07 06:07:04;;;;;;;;;;;-0.10;99.90;;;;;;4993235;28;21122;-66
2024/01/07 06:09:30;;;;;;;;;;;-0.10;99.90;;;;;;4966055;28;19968;-67
2024/01/07 06:11:56;;;;;;;;;;;-0.10;99.90;;;;;;4995561;28;19925;-66
2024/01/07 06:14:22;;;;;;;;;;;-0.10;99.90;;;;;;4978753;28;19928;-67
2024/01/07 06:16:48;;;;;;;;;;;-0.10;99.90;;;;;;4996750;28;20526;-67
2024/01/07 06:19:16;;;;;;;;;;;-0.10;99.90;;;;;;4980028;28;19936;-66
2024/01/07 06:21:42;;;;;;;;;;;-0.10;99.90;;;;;;4996728;28;19929;-65
2024/01/07 06:24:08;;;;;;;;;;;-0.10;99.90;;;;;;4979451;28;20043;-65
2024/01/07 06:26:34;;;;;;;;;;;-0.10;99.90;;;;;;4975939;28;20756;-66
2024/01/07 06:29:01;;;;;;;;;;;-0.10;99.90;;;;;;4978793;28;19951;-66
2024/01/07 06:31:27;;;;;;;;;;;-0.10;99.90;;;;;;4993505;28;19929;-66
2024/01/07 06:33:53;;;;;;;;;;;-0.10;99.90;;;;;;4977126;28;21232;-66
2024/01/07 06:36:18;;;;;;;;;;;-0.10;99.90;;;;;;4997110;28;19952;-66
2024/01/07 06:38:44;;;;;;;;;;;-0.10;99.90;;;;;;4966709;28;20428;-67
2024/01/07 06:41:12;;;;;;;;;;;-0.10;99.90;;;;;;4989366;28;19935;-66
2024/01/07 06:43:38;;;;;;;;;;;-0.10;99.90;;;;;;4977264;28;20493;-66
2024/01/07 06:46:04;;;;;;;;;;;-0.10;99.90;;;;;;4979582;28;19931;-66
2024/01/07 06:48:30;;;;;;;;;;;-0.10;99.90;;;;;;4970302;28;20316;-66
2024/01/07 06:50:57;;;;;;;;;;;-0.10;99.90;;;;;;4998006;28;19924;-66
2024/01/07 06:53:23;;;;;;;;;;;-0.10;99.90;;;;;;4972863;28;19931;-65
2024/01/07 06:55:49;;;;;;;;;;;-0.10;99.90;;;;;;4982582;28;20104;-66
2024/01/07 06:58:15;;;;;;;;;;;-0.10;99.90;;;;;;4952785;28;19925;-66
2024/01/07 07:00:41;;;;;;;;;;;-0.10;99.90;;;;;;4977511;28;19932;-66
2024/01/07 07:03:07;;;;;;;;;;;-0.10;99.90;;;;;;4956196;28;19994;-66
2024/01/07 07:05:33;;;;;;;;;;;-0.20;99.90;;;;;;5004530;28;20343;-66
2024/01/07 07:07:59;;;;;;;;;;;-0.20;99.90;;;;;;4973853;28;19932;-66
2024/01/07 07:10:25;;;;;;;;;;;-0.20;99.90;;;;;;5005093;28;19925;-65
2024/01/07 07:12:51;;;;;;;;;;;-0.20;99.90;;;;;;4954106;28;20002;-65
2024/01/07 07:15:17;;;;;;;;;;;-0.20;99.90;;;;;;4987214;28;19925;-66
2024/01/07 07:17:43;;;;;;;;;;;-0.10;99.90;;;;;;4974490;28;19928;-66
2024/01/07 07:20:09;;;;;;;;;;;-0.20;99.90;;;;;;4993615;28;19928;-66
2024/01/07 07:22:35;;;;;;;;;;;-0.20;99.90;;;;;;4984427;28;20479;-66
2024/01/07 07:25:02;;;;;;;;;;;-0.20;99.90;;;;;;4990797;28;19925;-67
2024/01/07 07:27:28;;;;;;;;;;;-0.20;99.90;;;;;;4973331;28;19929;-70
2024/01/07 07:29:54;;;;;;;;;;;-0.20;99.90;;;;;;5008660;28;19959;-71
2024/01/07 07:32:19;;;;;;;;;;;-0.20;99.90;;;;;;4969826;28;20739;-71
2024/01/07 07:34:46;;;;;;;;;;;-0.30;99.90;;;;;;4996914;28;19925;-70
2024/01/07 07:37:13;;;;;;;;;;;-0.30;99.90;;;;;;4968574;28;19928;-71
2024/01/07 07:39:39;;;;;;;;;;;-0.30;99.90;;;;;;4998531;28;19925;-71
2024/01/07 07:42:05;;;;;;;;;;;-0.30;99.90;;;;;;4993636;28;19932;-71
2024/01/07 07:44:31;;;;;;;;;;;-0.30;99.90;;;;;;4979035;28;19962;-69
2024/01/07 07:46:56;;;;;;;;;;;-0.20;99.90;;;;;;4994758;28;19928;-70
2024/01/07 07:49:22;;;;;;;;;;;-0.30;99.90;;;;;;4981298;28;19935;-70
2024/01/07 07:51:48;;;;;;;;;;;-0.30;99.90;;;;;;4998019;28;19932;-72
2024/01/07 07:54:14;;;;;;;;;;;-0.30;99.90;;;;;;4981597;28;19928;-71
2024/01/07 07:56:40;;;;;;;;;;;-0.30;99.90;;;;;;4999943;28;19935;-71
2024/01/07 07:59:08;;;;;;;;;;;-0.40;99.90;;;;;;4982970;28;19928;-71
2024/01/07 08:01:34;;;;;;;;;;;-0.50;99.90;;;;;;4979078;28;19936;-71
2024/01/07 08:04:02;;;;;;;;;;;-0.50;99.90;;;;;;4985791;28;19932;-72
2024/01/07 08:06:29;;;;;;;;;;;-0.50;99.90;;;;;;4975600;28;19936;-71
2024/01/07 08:08:54;;;;;;;;;;;-0.60;99.90;;;;;;4983046;28;20692;-72
2024/01/07 08:11:20;;;;;;;;;;;-0.60;99.90;;;;;;4996631;28;19925;-72
2024/01/07 08:13:47;;;;;;;;;;;-0.60;99.90;;;;;;4980324;28;19924;-72
2024/01/07 08:16:13;;;;;;;;;;;-0.70;99.90;;;;;;5002549;28;19925;-72
2024/01/07 08:18:39;;;;;;;;;;;-0.70;99.90;;;;;;4960924;28;19924;-72
2024/01/07 08:21:05;;;;;;;;;;;-0.70;99.90;;;;;;4967887;28;21065;-72
2024/01/07 08:23:30;;;;;;;;;;;-0.80;99.90;;;;;;4977033;28;19939;-72
2024/01/07 08:25:56;;;;;;;;;;;-0.80;99.90;;;;;;5000849;28;19924;-72
2024/01/07 08:28:22;;;;;;;;;;;-0.80;99.90;;;;;;4979940;28;20746;-72
2024/01/07 08:30:49;;;;;;;;;;;-0.80;99.90;;;;;;5003403;28;19929;-72
2024/01/07 08:33:15;;;;;;;;;;;-0.80;99.90;;;;;;4972439;28;19925;-72
2024/01/07 08:35:41;;;;;;;;;;;-0.80;99.90;;;;;;4998443;28;19943;-73
2024/01/07 08:38:06;;;;;;;;;;;-0.80;99.90;;;;;;4974587;28;21187;-73
2024/01/07 08:40:32;;;;;;;;;;;-0.80;99.90;;;;;;5005079;28;20013;-72
2024/01/07 08:42:58;;;;;;;;;;;-0.80;99.90;;;;;;4972513;28;19940;-73
2024/01/07 08:45:24;;;;;;;;;;;-0.90;99.90;;;;;;4995775;28;19954;-72
2024/01/07 08:47:50;;;;;;;;;;;-0.80;99.90;;;;;;4975376;28;20557;-73
2024/01/07 08:50:16;;;;;;;;;;;-0.90;99.90;;;;;;4987125;28;19933;-72
2024/01/07 08:52:42;;;;;;;;;;;-0.80;99.90;;;;;;4980143;28;20009;-72
2024/01/07 08:55:09;;;;;;;;;;;-0.80;99.90;;;;;;4979805;28;19925;-70
2024/01/07 08:57:37;;;;;;;;;;;-0.70;99.90;;;;;;4970761;28;19924;-71
2024/01/07 09:00:04;;;;;;;;;;;-0.70;99.90;;;;;;4998163;28;20669;-70
2024/01/07 09:02:30;;;;;;;;;;;-0.70;99.90;;;;;;4971767;28;19929;-71
2024/01/07 09:04:57;;;;;;;;;;;-0.70;99.90;;;;;;5013954;28;19932;-71
2024/01/07 09:07:23;;;;;;;;;;;-0.60;99.90;;;;;;4965798;28;19932;-70
2024/01/07 09:09:49;;;;;;;;;;;-0.50;99.90;;;;;;5003986;28;19969;-71
2024/01/07 09:12:15;;;;;;;;;;;-0.40;99.90;;;;;;4970007;28;21041;-71
2024/01/07 09:14:41;;;;;;;;;;;-0.30;99.90;;;;;;5011444;28;20008;-71
2024/01/07 09:17:07;;;;;;;;;;;-0.20;99.90;;;;;;4991362;28;19929;-71
2024/01/07 09:19:33;;;;;;;;;;;-0.10;99.90;;;;;;4989978;28;19929;-71
2024/01/07 09:21:59;;;;;;;;;;;-0.10;99.90;;;;;;4979600;28;19936;-71
2024/01/07 09:24:25;;;;;;;;;;;-0.20;99.90;;;;;;4984024;28;19924;-70
2024/01/07 09:26:51;;;;;;;;;;;-0.20;99.90;;;;;;5015111;28;19925;-70
2024/01/07 09:29:17;;;;;;;;;;;-0.30;99.90;;;;;;4983696;28;19952;-70
2024/01/07 09:31:43;;;;;;;;;;;-0.30;99.90;;;;;;4994154;28;19928;-70
2024/01/07 09:34:09;;;;;;;;;;;-0.30;99.90;;;;;;4983073;28;20453;-70
2024/01/07 09:36:36;;;;;;;;;;;-0.30;99.90;;;;;;4998214;28;19929;-70
2024/01/07 09:39:04;;;;;;;;;;;-0.20;99.90;;;;;;4983821;28;20923;-70
2024/01/07 09:41:30;;;;;;;;;;;-0.20;99.90;;;;;;4996558;28;19928;-70
2024/01/07 09:43:58;;;;;;;;;;;-0.10;99.90;;;;;;4966844;28;20533;-70
2024/01/07 09:46:25;;;;;;;;;;;0.00;99.90;;;;;;4991806;28;19925;-70
2024/01/07 09:48:51;;;;;;;;;;;0.10;99.90;;;;;;4981818;28;19929;-70
2024/01/07 09:51:21;;;;;;;;;;;0.20;99.90;;;;;;4999657;28;19925;-70
2024/01/07 09:53:48;;;;;;;;;;;0.20;99.90;;;;;;4960208;28;19929;-70
2024/01/07 09:56:22;;;;;;;;;;;0.30;99.90;;;;;;5001708;28;20437;-70
2024/01/07 09:58:49;;;;;;;;;;;0.40;99.90;;;;;;4982043;28;20647;-70
2024/01/07 10:01:15;;;;;;;;;;;0.40;99.90;;;;;;4997728;28;19929;-70
2024/01/07 10:03:41;;;;;;;;;;;0.50;99.90;;;;;;4971400;28;19924;-71
2024/01/07 10:06:07;;;;;;;;;;;0.60;99.90;;;;;;4984861;28;19956;-66
2024/01/07 10:08:34;;;;;;;;;;;0.50;99.90;;;;;;4945292;28;20982;-72
2024/01/07 10:11:01;;;;;;;;;;;0.60;99.90;;;;;;4990674;28;19956;-71
2024/01/07 10:13:27;;;;;;;;;;;0.60;99.90;;;;;;4960297;28;19928;-70
2024/01/07 10:15:54;;;;;;;;;;;0.70;99.90;;;;;;4994167;28;20425;-71
2024/01/07 10:18:20;;;;;;;;;;;0.70;99.90;;;;;;4971151;28;19924;-72
2024/01/07 10:20:46;;;;;;;;;;;0.70;99.90;;;;;;4995286;28;20002;-73
2024/01/07 10:23:12;;;;;;;;;;;0.80;99.90;;;;;;4969272;28;19935;-71
2024/01/07 10:25:38;;;;;;;;;;;0.70;99.90;;;;;;4983538;28;19925;-72
2024/01/07 10:28:04;;;;;;;;;;;0.80;99.90;;;;;;4969317;28;19925;-72
2024/01/07 10:30:30;;;;;;;;;;;0.80;99.90;;;;;;4985686;28;20010;-72
2024/01/07 10:32:59;;;;;;;;;;;0.80;99.90;;;;;;4962649;28;19936;-72
2024/01/07 10:35:33;;;;;;;;;;;0.80;99.90;;;;;;4977205;28;20714;-71
2024/01/07 10:38:01;;;;;;;;;;;0.90;99.90;;;;;;4955338;28;19924;-72
2024/01/07 10:40:29;;;;;;;;;;;0.90;99.90;;;;;;5004249;28;19933;-72
2024/01/07 10:42:55;;;;;;;;;;;0.90;99.90;;;;;;4979438;28;19963;-73
2024/01/07 10:45:22;;;;;;;;;;;0.90;99.90;;;;;;4989736;28;20482;-72
2024/01/07 10:47:49;;;;;;;;;;;1.00;99.90;;;;;;4971917;28;21930;-71
2024/01/07 10:50:17;;;;;;;;;;;1.10;99.90;;;;;;5005814;28;19940;-73
2024/01/07 10:52:45;;;;;;;;;;;1.10;99.90;;;;;;4974070;28;21106;-72
2024/01/07 10:55:12;;;;;;;;;;;1.10;99.90;;;;;;4989833;28;19931;-73
2024/01/07 10:57:42;;;;;;;;;;;1.20;99.90;;;;;;4972967;28;19931;-72
2024/01/07 11:00:09;;;;;;;;;;;1.20;99.90;;;;;;4991949;28;19951;-72
2024/01/07 11:02:43;;;;;;;;;;;1.20;99.90;;;;;;4958824;28;19925;-72
2024/01/07 11:05:20;;;;;;;;;;;1.20;99.90;;;;;;4996847;28;19924;-72
2024/01/07 11:07:51;;;;;;;;;;;1.20;99.90;;;;;;4950792;28;19932;-72
2024/01/07 11:10:17;;;;;;;;;;;1.20;99.90;;;;;;4996614;28;19931;-72
2024/01/07 11:12:43;;;;;;;;;;;1.20;99.90;;;;;;4978240;28;21165;-71
2024/01/07 11:15:10;;;;;;;;;;;1.10;99.90;;;;;;4968749;28;19929;-72
2024/01/07 11:17:36;;;;;;;;;;;1.10;99.90;;;;;;4952457;28;19932;-71
2024/01/07 11:20:02;;;;;;;;;;;1.00;99.90;;;;;;5005362;28;22250;-72
2024/01/07 11:22:28;;;;;;;;;;;1.00;99.90;;;;;;4988305;28;19935;-71
2024/01/07 11:24:56;;;;;;;;;;;0.90;99.90;;;;;;4994452;28;19929;-71
2024/01/07 11:27:22;;;;;;;;;;;1.00;99.90;;;;;;4966743;28;19929;-72
2024/01/07 11:29:55;;;;;;;;;;;1.00;99.90;;;;;;5006534;28;19940;-73
2024/01/07 11:32:21;;;;;;;;;;;1.00;99.90;;;;;;4933072;28;20763;-72
2024/01/07 11:34:50;;;;;;;;;;;1.00;99.90;;;;;;5005271;28;19925;-73
2024/01/07 11:37:16;;;;;;;;;;;0.90;99.90;;;;;;4968038;28;19932;-72
2024/01/07 11:39:45;;;;;;;;;;;0.90;99.90;;;;;;4990869;28;19925;-73
2024/01/07 11:42:11;;;;;;;;;;;0.90;99.90;;;;;;4973511;28;19940;-72
2024/01/07 11:44:37;;;;;;;;;;;0.90;99.90;;;;;;5000575;28;19928;-72
2024/01/07 11:47:04;;;;;;;;;;;0.90;99.90;;;;;;5017171;28;19935;-73
2024/01/07 11:49:32;;;;;;;;;;;1.00;99.90;;;;;;4969788;28;19929;-72
2024/01/07 11:51:58;;;;;;;;;;;1.00;99.90;;;;;;4988024;28;19925;-73
2024/01/07 11:54:24;;;;;;;;;;;0.90;99.90;;;;;;4956971;28;19928;-72
2024/01/07 11:56:50;;;;;;;;;;;0.90;99.90;;;;;;5002403;28;20954;-72
2024/01/07 11:59:16;;;;;;;;;;;0.90;99.90;;;;;;4972307;28;20051;-73
2024/01/07 12:01:42;;;;;;;;;;;0.90;99.90;;;;;;4999540;28;19937;-72
2024/01/07 12:04:09;;;;;;;;;;;0.90;99.90;;;;;;4979024;28;19929;-72
2024/01/07 12:06:35;;;;;;;;;;;1.00;99.90;;;;;;4977998;28;19936;-71
2024/01/07 12:09:02;;;;;;;;;;;1.10;99.90;;;;;;4952016;28;19929;-72
2024/01/07 12:11:28;;;;;;;;;;;1.20;99.90;;;;;;4980460;28;21443;-72
2024/01/07 12:13:54;;;;;;;;;;;1.30;99.90;;;;;;4980633;28;19928;-71
2024/01/07 12:16:20;;;;;;;;;;;1.40;99.90;;;;;;4982160;28;19931;-72
2024/01/07 12:18:46;;;;;;;;;;;1.30;99.90;;;;;;4952623;28;19932;-72
2024/01/07 12:21:18;;;;;;;;;;;1.30;99.90;;;;;;5000804;28;21382;-72
2024/01/07 12:23:47;;;;;;;;;;;1.30;99.90;;;;;;4970212;28;20824;-71
2024/01/07 12:26:13;;;;;;;;;;;1.20;99.90;;;;;;4978749;28;19936;-71
2024/01/07 12:28:39;;;;;;;;;;;1.30;99.90;;;;;;4972587;28;20761;-71
2024/01/07 12:31:06;;;;;;;;;;;2.90;99.90;;;;;;5015753;28;20031;-72
2024/01/07 12:33:33;;;;;;;;;;;4.50;99.90;;;;;;4983284;28;19983;-72
2024/01/07 12:35:59;;;;;;;;;;;5.60;99.90;;;;;;5001060;28;20815;-71
2024/01/07 12:38:25;;;;;;;;;;;5.90;99.90;;;;;;4969928;28;19929;-73
2024/01/07 12:40:52;;;;;;;;;;;5.20;99.90;;;;;;4996851;28;20903;-72
2024/01/07 12:43:18;;;;;;;;;;;5.50;99.90;;;;;;4979359;28;19935;-72
2024/01/07 12:45:44;;;;;;;;;;;6.20;99.90;;;;;;4999379;28;20239;-72
2024/01/07 12:48:10;;;;;;;;;;;6.90;99.90;;;;;;4975582;28;19929;-71
2024/01/07 12:50:36;;;;;;;;;;;6.80;99.90;;;;;;4989416;28;19924;-72
2024/01/07 12:53:02;;;;;;;;;;;6.20;99.90;;;;;;4970342;28;19924;-72
2024/01/07 12:55:29;;;;;;;;;;;5.80;99.90;;;;;;4972436;28;19931;-72
2024/01/07 12:57:55;;;;;;;;;;;5.60;99.90;;;;;;4956353;28;20254;-71
2024/01/07 13:00:21;;;;;;;;;;;6.50;99.90;;;;;;4997977;28;19925;-71
2024/01/07 13:02:47;;;;;;;;;;;6.40;99.90;;;;;;4973218;28;19932;-71
2024/01/07 13:05:12;;;;;;;;;;;6.10;99.90;;;;;;5006683;28;19932;-71
2024/01/07 13:07:38;;;;;;;;;;;4.90;99.90;;;;;;4977829;28;19935;-71
2024/01/07 13:10:06;;;;;;;;;;;4.50;99.90;;;;;;4984908;28;19929;-71
2024/01/07 13:12:31;;;;;;;;;;;3.90;99.90;;;;;;4968579;28;19925;-70
2024/01/07 13:14:57;;;;;;;;;;;3.80;99.90;;;;;;5004638;28;20521;-71
2024/01/07 13:17:23;;;;;;;;;;;4.10;99.90;;;;;;4969911;28;20128;-71
2024/01/07 13:19:49;;;;;;;;;;;4.30;99.90;;;;;;4989475;28;20541;-70
2024/01/07 13:22:15;;;;;;;;;;;3.70;99.90;;;;;;4971248;28;19928;-71
2024/01/07 13:24:41;;;;;;;;;;;3.70;99.90;;;;;;4995415;28;20591;-70
2024/01/07 13:27:08;;;;;;;;;;;4.10;99.90;;;;;;4969961;28;19931;-71
2024/01/07 13:29:35;;;;;;;;;;;5.30;99.90;;;;;;4975935;28;19929;-70
2024/01/07 13:32:00;;;;;;;;;;;6.10;99.90;;;;;;4976357;28;19932;-71
2024/01/07 13:34:26;;;;;;;;;;;6.30;99.90;;;;;;4970785;28;19929;-71
2024/01/07 13:36:52;;;;;;;;;;;6.80;99.90;;;;;;5012564;28;19928;-71
2024/01/07 13:39:19;;;;;;;;;;;6.50;99.90;;;;;;4963560;28;20061;-70
2024/01/07 13:41:45;;;;;;;;;;;6.80;99.90;;;;;;5009565;28;20004;-71
2024/01/07 13:44:17;;;;;;;;;;;7.40;99.90;;;;;;4962498;28;20615;-70
2024/01/07 13:46:46;;;;;;;;;;;7.50;99.90;;;;;;4993174;28;19925;-71
2024/01/07 13:49:15;;;;;;;;;;;7.60;99.90;;;;;;4961278;28;20975;-71
2024/01/07 13:51:42;;;;;;;;;;;7.40;99.90;;;;;;4991636;28;19924;-71
2024/01/07 13:54:10;;;;;;;;;;;6.00;99.90;;;;;;4964184;28;19951;-70
2024/01/07 13:56:37;;;;;;;;;;;5.30;99.90;;;;;;5012618;28;19932;-69
2024/01/07 13:59:03;;;;;;;;;;;4.30;99.90;;;;;;4966243;28;19932;-70
2024/01/07 14:01:29;;;;;;;;;;;3.60;99.90;;;;;;4994719;28;20291;-69
2024/01/07 14:03:55;;;;;;;;;;;4.70;99.90;;;;;;4960141;28;19935;-69
2024/01/07 14:06:21;;;;;;;;;;;5.60;99.90;;;;;;4970288;28;19924;-70
2024/01/07 14:08:47;;;;;;;;;;;5.60;99.90;;;;;;4980029;28;20074;-70
2024/01/07 14:11:13;;;;;;;;;;;5.30;99.90;;;;;;4996819;28;19939;-69
2024/01/07 14:13:39;;;;;;;;;;;6.00;99.90;;;;;;4964855;28;20501;-69
2024/01/07 14:16:06;;;;;;;;;;;6.50;99.90;;;;;;4994329;28;20076;-70
2024/01/07 14:18:32;;;;;;;;;;;7.10;99.90;;;;;;4978683;28;19924;-69